Latest Weather Observations for Falls Creek

IDV60801

Issued at 11:12 pm EST Saturday 25 September 2021 (issued every 10 minutes, with the page automatically refreshed every 10 minutes)

About weather observations | Map of weather stations | Latest weather observations for VIC | Other Formats
Station Details ID: 083084 Name: FALLS CREEK Lat: -36.87 Lon: 147.28 Height: 1765.0 m
Data from the previous 72 hours. | See also: Recent months at Falls Creek
Date/Time
EST
Temp
°C
App
Temp
°C
Dew
Point
°C
Rel
Hum
%
Delta-T
°C
Wind Press
QNH
hPa
Press
MSL
hPa
Rain since
9am
mm
Dir  Spd
km/h
Gust
km/h
Spd
kts
Gust
kts
25/11:00pm -4.1 -10.5 -4.9 94 0.1 S 20 26 11 14 1020.5 1021.0 0.0
25/10:30pm -3.6 -9.4 -4.3 95 0.1 SSE 17 22 9 12 1020.6 1021.1 0.0
25/10:00pm -3.4 -9.7 -4.2 94 0.1 S 20 28 11 15 1020.5 1021.0 0.0
25/09:30pm -3.3 -10.0 -4.1 94 0.1 S 22 28 12 15 1020.3 1020.9 0.0
25/09:00pm -3.2 -9.5 -3.9 95 0.1 SSE 20 28 11 15 1020.2 1020.7 0.0
25/08:30pm -2.9 -9.2 -3.6 95 0.1 SSE 20 24 11 13 1020.0 1020.5 0.0
25/08:00pm -2.7 -8.7 -3.2 96 0.1 S 19 24 10 13 1019.8 1020.2 0.0
25/07:30pm -2.4 -8.4 -2.9 96 0.1 SSE 19 22 10 12 1019.4 1019.9 0.0
25/07:00pm -2.0 -6.4 -2.6 96 0.1 SE 11 15 6 8 1019.0 1019.5 0.0
25/06:30pm -1.6 -6.4 -2.2 96 0.1 SSE 13 17 7 9 1018.7 1019.1 0.0
25/06:00pm -1.4 -6.1 -2.1 95 0.2 SSE 13 17 7 9 1018.6 1019.0 0.0
25/05:30pm -1.0 -5.7 -2.1 92 0.4 SE 13 19 7 10 1018.1 1018.5 0.0
25/05:00pm -0.3 -5.1 -2.7 84 0.9 SE 13 17 7 9 1017.9 1018.3 0.0
25/04:30pm 1.3 -3.2 -3.4 71 1.9 E 11 19 6 10 1017.4 1017.8 0.0
25/04:00pm 2.6 -1.1 -3.3 65 2.3 NNE 7 19 4 10 1017.3 1017.6 0.0
25/03:30pm 2.5 -1.3 -3.6 64 2.3 W 7 13 4 7 1016.8 1017.1 0.0
25/03:00pm 2.3 -0.9 -3.4 66 2.2 WSW 4 7 2 4 1016.5 1016.9 0.0
25/02:30pm 1.7 -1.6 -4.0 66 2.2 ESE 4 7 2 4 1016.3 1016.6 0.0
25/02:00pm 1.4 -2.5 -4.4 65 2.2 SSE 7 13 4 7 1016.4 1016.8 0.0
25/01:30pm 1.0 -3.4 -6.1 59 2.6 SW 9 17 5 9 1016.4 1016.8 0.0
25/01:00pm 0.7 -4.5 -6.4 59 2.5 SSW 13 26 7 14 1016.3 1016.6 0.0
25/12:30pm 1.3 -3.8 -5.6 60 2.5 SSW 13 20 7 11 1016.1 1016.4 0.0
25/12:00pm 0.9 -3.1 -7.3 54 2.9 WSW 6 17 3 9 1015.9 1016.3 0.0
25/11:30am 0.5 -4.0 -6.8 58 2.5 S 9 20 5 11 1015.8 1016.2 0.0
25/11:00am 0.1 -3.7 -5.7 65 2.1 WSW 6 17 3 9 1015.7 1016.0 0.0
25/10:30am -0.5 -4.9 -6.1 66 1.9 SSW 9 17 5 9 1015.5 1015.8 0.0
25/10:00am -1.1 -6.3 -6.0 69 1.6 S 13 19 7 10 1015.1 1015.4 0.0
25/09:30am -1.2 -6.3 -5.0 75 1.3 SSW 13 22 7 12 1014.8 1015.0 0.0
25/09:00am -2.3 -8.8 -5.8 77 1.1 S 20 26 11 14 1014.5 1014.8 2.6
25/08:30am -2.4 -8.2 -4.4 86 0.6 S 17 26 9 14 1014.0 1014.3 2.6
25/08:00am -3.0 -8.9 -5.5 83 0.7 S 17 22 9 12 1013.6 1013.8 2.6
25/07:30am -3.4 -10.2 -5.4 86 0.5 SSW 22 30 12 16 1012.9 1013.1 2.6
25/07:00am -4.0 -10.4 -5.2 91 0.2 SSW 20 24 11 13 1012.4 1012.6 2.6
25/06:30am -4.0 -11.2 -5.1 92 0.2 SSW 24 28 13 15 1012.0 1012.2 2.6
25/06:00am -3.6 -9.0 -4.9 91 0.3 SSW 15 24 8 13 1011.8 1011.9 2.6
25/05:30am -3.6 -7.5 -4.6 93 0.2 SW 7 13 4 7 1011.5 1011.7 2.6
25/05:00am -3.3 -7.9 -4.1 94 0.1 W 11 17 6 9 1011.1 1011.2 2.6
25/04:30am -3.1 -7.7 -3.9 94 0.1 WSW 11 17 6 9 1011.0 1011.1 2.6
25/04:00am -2.9 -7.5 -3.7 94 0.2 WNW 11 19 6 10 1010.8 1010.9 2.6
25/03:30am -2.6 -7.2 -3.7 92 0.3 WNW 11 22 6 12 1010.6 1010.7 2.6
25/03:00am -2.3 -8.0 -3.4 92 0.3 NNW 17 26 9 14 1010.5 1010.6 2.6
25/02:30am -1.9 -7.1 -2.7 94 0.2 NW 15 24 8 13 1010.4 1010.5 2.6
25/02:00am -1.5 -8.4 -2.8 91 0.4 NW 24 35 13 19 1010.2 1010.3 2.6
25/01:30am -1.3 -8.2 -2.3 93 0.3 WNW 24 35 13 19 1010.5 1010.6 2.6
25/01:00am -1.0 -6.4 -1.4 97 0.1 NW 17 33 9 18 1010.5 1010.6 2.6
25/12:30am -0.7 -6.4 -1.1 97 0.1 NW 19 33 10 18 1010.6 1010.7 2.6
25/12:00am -0.4 -6.1 -0.8 97 0.1 NW 19 39 10 21 1010.5 1010.6 2.6
 
Date/Time
EST
Temp
°C
App
Temp
°C
Dew
Point
°C
Rel
Hum
%
Delta-T
°C
Wind Press
QNH
hPa
Press
MSL
hPa
Rain since
9am
mm
Dir  Spd
km/h
Gust
km/h
Spd
kts
Gust
kts
24/11:30pm -0.2 -6.9 -0.9 95 0.3 NNW 24 43 13 23 1010.5 1010.6 2.6
24/11:00pm 0.0 -6.3 -1.1 92 0.4 NW 22 37 12 20 1010.2 1010.3 2.6
24/10:30pm 0.2 -7.3 -1.4 89 0.6 NW 28 46 15 25 1010.1 1010.2 2.6
24/10:00pm 0.3 -8.0 -1.9 85 0.9 NW 32 57 17 31 1010.1 1010.2 2.6
24/09:30pm 0.5 -9.1 -1.6 86 0.9 WNW 39 63 21 34 1009.9 1010.0 2.6
24/09:00pm 0.8 -8.6 -0.3 92 0.5 WNW 39 57 21 31 1009.6 1009.7 2.6
24/08:30pm 1.0 -9.5 -1.1 86 0.8 NW 44 67 24 36 1009.5 1009.6 2.6
24/08:00pm 1.4 -9.4 -0.7 86 0.9 NW 46 69 25 37 1009.4 1009.5 2.6
24/07:30pm 2.0 -8.6 0.5 90 0.6 NW 46 69 25 37 1009.2 1009.2 2.6
24/07:00pm 2.2 -10.0 0.6 89 0.7 NW 54 82 29 44 1008.9 1009.0 2.6
24/06:30pm 2.1 -8.0 1.5 96 0.3 NW 44 72 24 39 1008.8 1008.8 2.6
24/06:00pm 2.2 -8.2 2.1 99 0.0 NW 46 82 25 44 1008.5 1008.5 2.6
24/05:30pm 2.2 -8.2 2.1 99 0.0 NW 46 82 25 44 1008.5 1008.5 2.6
24/05:21pm 2.1 -9.5 2.0 99 0.0 NW 52 95 28 51 1008.6 1008.6 2.6
24/05:13pm 2.1 -9.1 2.0 99 0.0 NNW 50 95 27 51 1008.2 1008.2 2.6
24/05:00pm 2.0 -8.0 1.9 99 0.0 NW 44 74 24 40 1008.2 1008.2 2.6
24/04:34pm 2.0 -8.4 1.9 99 0.0 NW 46 82 25 44 1008.6 1008.6 2.6
24/04:30pm 1.9 -8.0 1.8 99 0.0 NW 43 61 23 33 1008.9 1009.0 2.6
24/04:00pm 2.2 -6.6 1.6 96 0.3 NW 37 63 20 34 1008.6 1008.6 1.0
24/03:52pm 2.3 -7.6 1.7 96 0.3 NW 43 74 23 40 1008.5 1008.5 0.8
24/03:50pm 2.2 -7.7 1.6 96 0.3 NW 43 74 23 40 1008.8 1008.8 0.8
24/03:30pm 3.2 -6.4 1.1 86 0.9 NNW 41 65 22 35 1007.6 1007.6 0.0
24/03:00pm 3.3 -6.8 0.5 82 1.2 NW 43 70 23 38 1008.2 1008.2 0.0
24/02:30pm 3.5 -6.2 0.4 80 1.3 NW 41 67 22 36 1008.7 1008.7 0.0
24/02:00pm 3.8 -7.0 -0.2 75 1.7 NNW 46 76 25 41 1008.6 1008.6 0.0
24/01:30pm 5.1 -4.4 -0.7 66 2.4 NW 39 80 21 43 1009.3 1009.3 0.0
24/01:00pm 5.0 -6.1 -2.6 58 3.1 NNW 46 83 25 45 1008.7 1008.7 0.0
24/12:30pm 5.5 -4.5 -1.4 61 2.9 NNW 41 67 22 36 1009.5 1009.6 0.0
24/12:00pm 5.3 -4.7 -1.8 60 2.9 NNW 41 69 22 37 1009.9 1010.0 0.0
24/11:35am 4.8 -5.2 0.8 75 1.7 NNW 43 65 23 35 1009.9 1010.0 0.0
24/11:30am 4.6 -5.2 0.0 72 2.0 NNW 41 57 22 31 1010.2 1010.3 0.0
24/11:00am 4.6 -4.8 0.0 72 2.0 NNW 39 63 21 34 1010.1 1010.2 0.0
24/10:30am 4.5 -5.6 0.6 76 1.7 NNW 43 69 23 37 1010.6 1010.7 0.0
24/10:00am 3.7 -6.4 0.4 79 1.4 NNW 43 70 23 38 1010.6 1010.7 0.0
24/09:30am 3.2 -6.3 2.0 92 0.5 NNW 41 63 22 34 1010.8 1010.9 0.0
24/09:00am 2.8 -5.8 2.7 99 0.0 NW 37 65 20 35 1011.1 1011.2 0.8
24/08:30am 2.1 -7.0 2.0 99 0.0 NW 39 61 21 33 1011.3 1011.4 0.8
24/08:00am 2.2 -7.6 2.1 99 0.0 NW 43 70 23 38 1011.4 1011.6 0.8
24/07:30am 2.2 -6.5 2.1 99 0.0 NNW 37 69 20 37 1011.4 1011.6 0.8
24/07:00am 2.2 -8.2 2.1 99 0.0 NNW 46 69 25 37 1011.0 1011.1 0.8
24/06:30am 2.0 -8.0 1.9 99 0.0 NNW 44 76 24 41 1011.1 1011.2 0.8
24/06:00am 2.0 -7.1 1.9 99 0.0 NW 39 80 21 43 1011.4 1011.6 0.8
24/05:30am 2.3 -7.5 2.2 99 0.0 NNW 43 69 23 37 1011.4 1011.6 0.8
24/05:00am 2.7 -6.3 2.6 99 0.0 NNW 39 57 21 31 1011.7 1011.8 0.8
24/04:30am 2.7 -6.3 2.6 99 0.0 NNW 39 61 21 33 1011.7 1011.8 0.6
24/04:04am 2.8 -5.8 2.7 99 0.0 NNW 37 65 20 35 1012.0 1012.2 0.6
24/04:00am 2.8 -5.8 2.7 99 0.0 NNW 37 54 20 29 1012.0 1012.2 0.6
24/03:30am 3.0 -6.3 2.9 99 0.0 NNW 41 61 22 33 1012.3 1012.4 0.6
24/03:11am 3.0 -5.5 2.9 99 0.0 NNW 37 56 20 30 1012.6 1012.8 0.6
24/03:00am 3.1 -5.8 3.0 99 0.0 NNW 39 56 21 30 1012.7 1012.9 0.6
24/02:30am 3.2 -6.1 3.1 99 0.0 NNW 41 59 22 32 1013.3 1013.6 0.4
24/02:00am 3.3 -6.3 3.2 99 0.0 NNW 43 63 23 34 1013.6 1013.8 0.4
24/01:38am 3.3 -5.6 3.2 99 0.0 NNW 39 57 21 31 1014.0 1014.3 0.4
24/01:30am 3.2 -5.3 3.1 99 0.0 NNW 37 54 20 29 1014.3 1014.5 0.4
24/01:02am 3.2 -6.1 3.1 99 0.0 NNW 41 61 22 33 1014.5 1014.8 0.4
24/01:00am 3.1 -5.8 3.0 99 0.0 NNW 39 56 21 30 1014.5 1014.8 0.4
24/12:30am 3.1 -6.6 3.0 99 0.0 NNW 43 67 23 36 1014.9 1015.2 0.4
24/12:00am 3.3 -6.3 3.2 99 0.0 NNW 43 69 23 37 1015.2 1015.5 0.4
 
Date/Time
EST
Temp
°C
App
Temp
°C
Dew
Point
°C
Rel
Hum
%
Delta-T
°C
Wind Press
QNH
hPa
Press
MSL
hPa
Rain since
9am
mm
Dir  Spd
km/h
Gust
km/h
Spd
kts
Gust
kts
23/11:30pm 3.3 -6.3 3.2 99 0.0 NNW 43 65 23 35 1015.6 1015.9 0.2
23/11:00pm 3.2 -4.9 3.1 99 0.0 NW 35 63 19 34 1016.3 1016.6 0.2
23/10:32pm 3.0 -5.2 2.9 99 0.0 NNW 35 54 19 29 1016.8 1017.1 0.2
23/10:30pm 3.0 -5.5 2.9 99 0.0 NNW 37 54 20 29 1016.5 1016.9 0.2
23/10:00pm 3.1 -5.4 3.0 99 0.0 NNW 37 61 20 33 1016.8 1017.1 0.2
23/09:30pm 3.4 -5.5 3.3 99 0.0 NNW 39 69 21 37 1017.3 1017.6 0.2
23/09:01pm 3.5 -5.3 3.4 99 0.0 NNW 39 61 21 33 1017.4 1017.8 0.2
23/09:00pm 3.5 -5.0 3.4 99 0.0 NNW 37 54 20 29 1017.4 1017.8 0.2
23/08:31pm 3.7 -4.0 3.6 99 0.0 NNW 33 61 18 33 1017.5 1017.9 0.2
23/08:30pm 3.8 -4.2 3.7 99 0.0 NNW 35 52 19 28 1017.4 1017.8 0.2
23/08:00pm 3.7 -4.3 3.6 99 0.0 NNW 35 57 19 31 1017.6 1018.0 0.0
23/07:30pm 3.8 -3.3 3.7 99 0.0 NW 30 50 16 27 1017.7 1018.1 0.0
23/07:00pm 3.3 -5.2 3.2 99 0.0 NNW 37 57 20 31 1017.5 1017.9 0.0
23/06:30pm 3.8 -3.8 3.7 99 0.0 NNW 33 54 18 29 1017.4 1017.8 0.0
23/06:00pm 3.8 -3.8 3.7 99 0.0 NNW 33 56 18 30 1017.0 1017.4 0.0
23/05:30pm 3.8 -3.8 3.7 99 0.0 NNW 33 54 18 29 1017.4 1017.8 0.0
23/05:00pm 3.7 -3.8 3.6 99 0.0 NNW 32 52 17 28 1017.1 1017.5 0.0
23/04:30pm 3.8 -3.7 3.5 98 0.1 NW 32 50 17 27 1017.4 1017.8 0.0
23/04:19pm 3.8 -3.3 3.7 99 0.0 NW 30 50 16 27 1017.7 1018.1 0.0
23/04:00pm 3.9 -2.0 3.8 99 0.0 NW 24 39 13 21 1018.1 1018.5 0.0
23/03:30pm 4.0 -2.7 3.9 99 0.0 NW 28 44 15 24 1018.3 1018.8 0.0
23/03:00pm 4.1 -4.3 3.8 98 0.1 NW 37 56 20 30 1018.3 1018.8 0.0
23/02:30pm 4.0 -3.4 3.9 99 0.0 NW 32 52 17 28 1018.3 1018.8 0.0
23/02:00pm 4.0 -4.0 3.7 98 0.1 NW 35 54 19 29 1018.6 1019.0 0.0
23/01:30pm 4.0 -3.0 3.9 99 0.0 NW 30 52 16 28 1018.8 1019.3 0.0
23/01:14pm 4.0 -3.4 3.9 99 0.0 NW 32 50 17 27 1019.0 1019.5 0.0
23/01:00pm 3.8 -3.8 3.7 99 0.0 NW 33 48 18 26 1019.3 1019.7 0.0
23/12:35pm 3.8 -3.7 3.7 99 0.0 NW 32 50 17 27 1019.6 1020.1 0.0
23/12:30pm 3.8 -3.7 3.7 99 0.0 NW 32 46 17 25 1019.6 1020.1 0.0
23/12:07pm 3.4 -4.1 3.3 99 0.0 NW 32 52 17 28 1019.9 1020.4 0.0
23/12:00pm 3.5 -4.0 3.4 99 0.0 NW 32 46 17 25 1019.8 1020.2 0.0
23/11:30am 3.2 -4.9 3.1 99 0.0 NW 35 56 19 30 1019.6 1020.1 0.0
23/11:01am 2.8 -5.0 2.7 99 0.0 NW 33 54 18 29 1019.9 1020.4 0.0
23/11:00am 2.9 -4.7 2.8 99 0.0 NW 32 48 17 26 1020.0 1020.5 0.0
23/10:44am 3.0 -4.2 2.9 99 0.0 NW 30 48 16 26 1020.1 1020.6 0.0
23/10:30am 2.9 -4.3 2.8 99 0.0 NW 30 43 16 23 1020.3 1020.9 0.0
23/10:15am 3.2 -3.7 2.8 97 0.2 NW 28 46 15 25 1020.5 1021.0 0.0
23/10:00am 3.6 -2.4 3.2 97 0.2 NNW 24 39 13 21 1020.5 1021.0 0.0
23/09:30am 3.3 -3.2 2.6 95 0.3 NW 26 43 14 23 1020.8 1021.4 0.0
23/09:00am 2.7 -3.5 2.1 96 0.3 NNW 24 39 13 21 1020.7 1021.2 0.0
23/08:30am 2.3 -2.9 2.2 99 0.0 NNW 19 32 10 17 1021.1 1021.6 0.0
23/08:00am 2.3 -2.3 1.7 96 0.3 NNW 15 24 8 13 1021.4 1022.0 0.0
23/07:30am 2.8 -3.3 0.7 86 0.9 WNW 22 32 12 17 1021.7 1022.2 0.0
23/07:00am 1.8 -3.2 1.2 96 0.3 NW 17 33 9 18 1021.4 1022.0 0.0
23/06:30am 2.4 -4.1 0.1 85 1.0 WNW 24 48 13 26 1021.3 1021.9 0.0
23/06:00am 3.0 -3.7 -0.8 76 1.6 WNW 24 39 13 21 1020.9 1021.5 0.0
23/05:30am 3.7 -1.8 -1.8 67 2.2 NW 17 30 9 16 1021.1 1021.6 0.0
23/05:00am 4.6 -0.4 -4.1 53 3.3 NW 13 22 7 12 1021.1 1021.6 0.0
23/04:30am 5.3 -1.5 -4.8 48 3.9 W 22 37 12 20 1021.2 1021.7 0.0
23/04:00am 4.5 -3.0 -5.0 50 3.6 W 26 32 14 17 1021.2 1021.7 0.0
23/03:30am 4.9 -3.0 -4.9 49 3.7 W 28 35 15 19 1021.4 1022.0 0.0
23/03:00am 4.4 -3.1 -4.3 53 3.3 W 26 33 14 18 1021.7 1022.2 0.0
23/02:30am 5.3 -2.9 -4.3 50 3.7 W 30 37 16 20 1022.0 1022.6 0.0
23/02:00am 4.8 -1.5 -4.0 53 3.4 W 20 26 11 14 1022.5 1023.1 0.0
23/01:30am 5.3 -0.1 -4.5 49 3.8 WNW 15 20 8 11 1023.0 1023.6 0.0
23/01:00am 5.8 -0.1 -5.5 44 4.3 W 17 20 9 11 1023.4 1024.1 0.0
23/12:30am 6.8 -0.1 -5.8 40 4.8 WSW 22 24 12 13 1023.7 1024.3 0.0
23/12:00am 6.4 -0.2 -6.5 39 4.8 SW 20 26 11 14 1024.0 1024.7 0.0
 
Date/Time
EST
Temp
°C
App
Temp
°C
Dew
Point
°C
Rel
Hum
%
Delta-T
°C
Wind Press
QNH
hPa
Press
MSL
hPa
Rain since
9am
mm
Dir  Spd
km/h
Gust
km/h
Spd
kts
Gust
kts
22/11:30pm 7.3 0.6 -7.5 34 5.4 WSW 20 24 11 13 1024.2 1024.8 0.0

Other formats

Comma delimited format used in spreadsheet applications
http://www.bom.gov.au/fwo/IDV60801/IDV60801.94903.axf

JavaScript Object Notation format (JSON) in row-major order
http://www.bom.gov.au/fwo/IDV60801/IDV60801.94903.json

Data quality

Most of these data are generated automatically and are frequently updated. Quality checks on data are not normally performed. It is possible for incorrect values to appear. Refer to information at About Latest Weather Observations and please check the disclaimer before using these data.